sensor_id;sensor_type;location;lat;lon;timestamp;P1;durP1;ratioP1;P2;durP2;ratioP2
40533;SDS011;26233;51.894;10.192;2022-10-17T00:00:48;2.13;;;1.20;;
40533;SDS011;26233;51.894;10.192;2022-10-17T00:03:15;2.13;;;1.30;;
40533;SDS011;26233;51.894;10.192;2022-10-17T00:05:44;1.67;;;1.10;;
40533;SDS011;26233;51.894;10.192;2022-10-17T00:08:15;3.35;;;1.40;;
40533;SDS011;26233;51.894;10.192;2022-10-17T00:10:43;1.73;;;1.30;;
40533;SDS011;26233;51.894;10.192;2022-10-17T00:13:11;2.28;;;1.30;;
40533;SDS011;26233;51.894;10.192;2022-10-17T00:15:41;1.30;;;1.20;;
40533;SDS011;26233;51.894;10.192;2022-10-17T00:18:09;1.92;;;1.33;;
40533;SDS011;26233;51.894;10.192;2022-10-17T00:20:36;1.23;;;1.15;;
40533;SDS011;26233;51.894;10.192;2022-10-17T00:23:03;1.98;;;1.38;;
40533;SDS011;26233;51.894;10.192;2022-10-17T00:25:32;1.33;;;1.23;;
40533;SDS011;26233;51.894;10.192;2022-10-17T00:27:59;1.77;;;1.48;;
40533;SDS011;26233;51.894;10.192;2022-10-17T00:30:26;2.10;;;1.98;;
40533;SDS011;26233;51.894;10.192;2022-10-17T00:32:53;2.15;;;1.95;;
40533;SDS011;26233;51.894;10.192;2022-10-17T00:35:20;2.05;;;1.90;;
40533;SDS011;26233;51.894;10.192;2022-10-17T00:37:47;3.00;;;2.28;;
40533;SDS011;26233;51.894;10.192;2022-10-17T00:40:14;2.40;;;2.20;;
40533;SDS011;26233;51.894;10.192;2022-10-17T00:42:43;3.22;;;2.22;;
40533;SDS011;26233;51.894;10.192;2022-10-17T00:45:14;2.55;;;2.33;;
40533;SDS011;26233;51.894;10.192;2022-10-17T00:47:47;2.97;;;2.78;;
40533;SDS011;26233;51.894;10.192;2022-10-17T00:50:18;3.55;;;2.90;;
40533;SDS011;26233;51.894;10.192;2022-10-17T00:52:46;3.22;;;2.92;;
40533;SDS011;26233;51.894;10.192;2022-10-17T00:55:15;3.45;;;2.78;;
40533;SDS011;26233;51.894;10.192;2022-10-17T00:57:47;2.72;;;2.53;;
40533;SDS011;26233;51.894;10.192;2022-10-17T01:00:15;2.65;;;2.20;;
40533;SDS011;26233;51.894;10.192;2022-10-17T01:02:43;2.30;;;2.00;;
40533;SDS011;26233;51.894;10.192;2022-10-17T01:05:11;2.03;;;1.83;;
40533;SDS011;26233;51.894;10.192;2022-10-17T01:07:39;2.00;;;1.60;;
40533;SDS011;26233;51.894;10.192;2022-10-17T01:10:08;1.80;;;1.70;;
40533;SDS011;26233;51.894;10.192;2022-10-17T01:12:38;1.92;;;1.77;;
40533;SDS011;26233;51.894;10.192;2022-10-17T01:15:20;2.10;;;1.90;;
40533;SDS011;26233;51.894;10.192;2022-10-17T01:18:02;1.98;;;1.60;;
40533;SDS011;26233;51.894;10.192;2022-10-17T01:20:51;1.45;;;1.35;;
40533;SDS011;26233;51.894;10.192;2022-10-17T01:24:12;1.45;;;1.20;;
40533;SDS011;26233;51.894;10.192;2022-10-17T01:27:28;2.30;;;1.48;;
40533;SDS011;26233;51.894;10.192;2022-10-17T01:33:31;1.30;;;1.20;;
40533;SDS011;26233;51.894;10.192;2022-10-17T01:36:10;1.50;;;1.40;;
40533;SDS011;26233;51.894;10.192;2022-10-17T01:38:46;2.10;;;1.30;;
40533;SDS011;26233;51.894;10.192;2022-10-17T01:41:19;2.55;;;1.20;;
40533;SDS011;26233;51.894;10.192;2022-10-17T01:43:54;1.38;;;1.27;;
40533;SDS011;26233;51.894;10.192;2022-10-17T01:46:31;2.17;;;1.10;;
40533;SDS011;26233;51.894;10.192;2022-10-17T01:49:03;1.40;;;1.30;;
40533;SDS011;26233;51.894;10.192;2022-10-17T01:51:33;2.22;;;1.20;;
40533;SDS011;26233;51.894;10.192;2022-10-17T01:54:05;1.33;;;1.23;;
40533;SDS011;26233;51.894;10.192;2022-10-17T01:56:37;1.30;;;1.20;;
40533;SDS011;26233;51.894;10.192;2022-10-17T01:59:08;1.38;;;1.27;;
40533;SDS011;26233;51.894;10.192;2022-10-17T02:01:43;1.30;;;1.20;;
40533;SDS011;26233;51.894;10.192;2022-10-17T02:04:12;1.10;;;1.10;;
40533;SDS011;26233;51.894;10.192;2022-10-17T02:06:40;1.40;;;1.15;;
40533;SDS011;26233;51.894;10.192;2022-10-17T02:09:17;1.88;;;1.50;;
40533;SDS011;26233;51.894;10.192;2022-10-17T02:12:03;1.40;;;1.30;;
40533;SDS011;26233;51.894;10.192;2022-10-17T02:14:49;1.60;;;1.50;;
40533;SDS011;26233;51.894;10.192;2022-10-17T02:17:41;1.38;;;1.20;;
40533;SDS011;26233;51.894;10.192;2022-10-17T02:20:16;2.25;;;1.40;;
40533;SDS011;26233;51.894;10.192;2022-10-17T02:22:50;1.50;;;1.40;;
40533;SDS011;26233;51.894;10.192;2022-10-17T02:25:25;1.83;;;1.20;;
40533;SDS011;26233;51.894;10.192;2022-10-17T02:28:03;1.70;;;1.40;;
40533;SDS011;26233;51.894;10.192;2022-10-17T02:30:42;1.45;;;1.35;;
40533;SDS011;26233;51.894;10.192;2022-10-17T02:33:16;1.55;;;1.45;;
40533;SDS011;26233;51.894;10.192;2022-10-17T02:35:50;1.58;;;1.48;;
40533;SDS011;26233;51.894;10.192;2022-10-17T02:38:20;1.40;;;1.30;;
40533;SDS011;26233;51.894;10.192;2022-10-17T02:40:48;1.38;;;1.27;;
40533;SDS011;26233;51.894;10.192;2022-10-17T02:43:17;1.40;;;1.30;;
40533;SDS011;26233;51.894;10.192;2022-10-17T02:45:44;1.35;;;1.25;;
40533;SDS011;26233;51.894;10.192;2022-10-17T02:48:13;1.83;;;1.23;;
40533;SDS011;26233;51.894;10.192;2022-10-17T02:50:51;1.80;;;1.33;;
40533;SDS011;26233;51.894;10.192;2022-10-17T02:53:29;3.33;;;1.55;;
40533;SDS011;26233;51.894;10.192;2022-10-17T02:56:10;1.60;;;1.50;;
40533;SDS011;26233;51.894;10.192;2022-10-17T02:58:44;1.63;;;1.52;;
40533;SDS011;26233;51.894;10.192;2022-10-17T03:01:16;1.63;;;1.52;;
40533;SDS011;26233;51.894;10.192;2022-10-17T03:03:45;1.70;;;1.60;;
40533;SDS011;26233;51.894;10.192;2022-10-17T03:06:12;1.40;;;1.30;;
40533;SDS011;26233;51.894;10.192;2022-10-17T03:08:39;1.80;;;1.40;;
40533;SDS011;26233;51.894;10.192;2022-10-17T03:11:07;1.42;;;1.33;;
40533;SDS011;26233;51.894;10.192;2022-10-17T03:13:34;1.27;;;1.23;;
40533;SDS011;26233;51.894;10.192;2022-10-17T03:16:01;1.45;;;1.20;;
40533;SDS011;26233;51.894;10.192;2022-10-17T03:18:30;1.50;;;1.40;;
40533;SDS011;26233;51.894;10.192;2022-10-17T03:20:58;1.83;;;1.48;;
40533;SDS011;26233;51.894;10.192;2022-10-17T03:23:25;1.52;;;1.42;;
40533;SDS011;26233;51.894;10.192;2022-10-17T03:25:52;1.60;;;1.50;;
40533;SDS011;26233;51.894;10.192;2022-10-17T03:28:19;1.80;;;1.70;;
40533;SDS011;26233;51.894;10.192;2022-10-17T03:30:46;1.50;;;1.40;;
40533;SDS011;26233;51.894;10.192;2022-10-17T03:33:13;2.47;;;1.40;;
40533;SDS011;26233;51.894;10.192;2022-10-17T03:35:40;1.83;;;1.50;;
40533;SDS011;26233;51.894;10.192;2022-10-17T03:38:09;1.80;;;1.70;;
40533;SDS011;26233;51.894;10.192;2022-10-17T03:40:36;1.58;;;1.20;;
40533;SDS011;26233;51.894;10.192;2022-10-17T03:43:03;1.63;;;1.40;;
40533;SDS011;26233;51.894;10.192;2022-10-17T03:45:30;1.70;;;1.52;;
40533;SDS011;26233;51.894;10.192;2022-10-17T03:47:57;3.10;;;1.50;;
40533;SDS011;26233;51.894;10.192;2022-10-17T03:50:24;1.60;;;1.50;;
40533;SDS011;26233;51.894;10.192;2022-10-17T03:52:51;1.88;;;1.70;;
40533;SDS011;26233;51.894;10.192;2022-10-17T03:55:19;2.35;;;1.40;;
40533;SDS011;26233;51.894;10.192;2022-10-17T03:57:46;1.63;;;1.52;;
40533;SDS011;26233;51.894;10.192;2022-10-17T04:00:14;1.80;;;1.60;;
40533;SDS011;26233;51.894;10.192;2022-10-17T04:02:41;1.73;;;1.40;;
40533;SDS011;26233;51.894;10.192;2022-10-17T04:05:09;1.90;;;1.60;;
40533;SDS011;26233;51.894;10.192;2022-10-17T04:07:36;1.77;;;1.60;;
40533;SDS011;26233;51.894;10.192;2022-10-17T04:10:03;1.50;;;1.40;;
40533;SDS011;26233;51.894;10.192;2022-10-17T04:12:33;1.75;;;1.65;;
40533;SDS011;26233;51.894;10.192;2022-10-17T04:15:00;2.10;;;1.63;;
40533;SDS011;26233;51.894;10.192;2022-10-17T04:17:28;1.70;;;1.60;;
40533;SDS011;26233;51.894;10.192;2022-10-17T04:19:56;1.90;;;1.77;;
40533;SDS011;26233;51.894;10.192;2022-10-17T04:22:23;1.77;;;1.67;;
40533;SDS011;26233;51.894;10.192;2022-10-17T04:24:50;2.05;;;1.85;;
40533;SDS011;26233;51.894;10.192;2022-10-17T04:27:17;1.70;;;1.60;;
40533;SDS011;26233;51.894;10.192;2022-10-17T04:29:45;2.33;;;1.88;;
40533;SDS011;26233;51.894;10.192;2022-10-17T04:32:12;1.58;;;1.48;;
40533;SDS011;26233;51.894;10.192;2022-10-17T04:34:39;1.80;;;1.70;;
40533;SDS011;26233;51.894;10.192;2022-10-17T04:37:06;1.92;;;1.77;;
40533;SDS011;26233;51.894;10.192;2022-10-17T04:39:33;1.98;;;1.80;;
40533;SDS011;26233;51.894;10.192;2022-10-17T04:42:00;1.80;;;1.70;;
40533;SDS011;26233;51.894;10.192;2022-10-17T04:44:27;1.70;;;1.60;;
40533;SDS011;26233;51.894;10.192;2022-10-17T04:46:56;1.90;;;1.80;;
40533;SDS011;26233;51.894;10.192;2022-10-17T04:49:23;3.30;;;1.70;;
40533;SDS011;26233;51.894;10.192;2022-10-17T04:51:50;3.35;;;1.98;;
40533;SDS011;26233;51.894;10.192;2022-10-17T04:54:17;1.88;;;1.77;;
40533;SDS011;26233;51.894;10.192;2022-10-17T04:56:44;2.45;;;1.80;;
40533;SDS011;26233;51.894;10.192;2022-10-17T04:59:12;1.83;;;1.73;;
40533;SDS011;26233;51.894;10.192;2022-10-17T05:01:39;2.95;;;1.90;;
40533;SDS011;26233;51.894;10.192;2022-10-17T05:04:08;2.47;;;2.00;;
40533;SDS011;26233;51.894;10.192;2022-10-17T05:06:35;2.55;;;2.10;;
40533;SDS011;26233;51.894;10.192;2022-10-17T05:09:03;4.03;;;2.00;;
40533;SDS011;26233;51.894;10.192;2022-10-17T05:11:30;2.42;;;2.22;;
40533;SDS011;26233;51.894;10.192;2022-10-17T05:13:58;2.00;;;1.90;;
40533;SDS011;26233;51.894;10.192;2022-10-17T05:16:27;2.13;;;1.92;;
40533;SDS011;26233;51.894;10.192;2022-10-17T05:18:56;1.70;;;1.60;;
40533;SDS011;26233;51.894;10.192;2022-10-17T05:21:26;2.20;;;2.00;;
40533;SDS011;26233;51.894;10.192;2022-10-17T05:23:54;2.00;;;1.80;;
40533;SDS011;26233;51.894;10.192;2022-10-17T05:26:22;2.22;;;2.03;;
40533;SDS011;26233;51.894;10.192;2022-10-17T05:28:49;2.47;;;2.22;;
40533;SDS011;26233;51.894;10.192;2022-10-17T05:31:17;1.80;;;1.70;;
40533;SDS011;26233;51.894;10.192;2022-10-17T05:33:44;1.88;;;1.60;;
40533;SDS011;26233;51.894;10.192;2022-10-17T05:36:11;2.00;;;1.80;;
40533;SDS011;26233;51.894;10.192;2022-10-17T05:38:40;1.80;;;1.70;;
40533;SDS011;26233;51.894;10.192;2022-10-17T05:41:08;1.90;;;1.70;;
40533;SDS011;26233;51.894;10.192;2022-10-17T05:43:35;1.90;;;1.80;;
40533;SDS011;26233;51.894;10.192;2022-10-17T05:46:03;2.08;;;1.63;;
40533;SDS011;26233;51.894;10.192;2022-10-17T05:48:30;1.75;;;1.65;;
40533;SDS011;26233;51.894;10.192;2022-10-17T05:50:58;2.00;;;1.80;;
40533;SDS011;26233;51.894;10.192;2022-10-17T05:53:28;1.67;;;1.58;;
40533;SDS011;26233;51.894;10.192;2022-10-17T05:55:59;2.30;;;2.10;;
40533;SDS011;26233;51.894;10.192;2022-10-17T05:58:29;2.22;;;1.98;;
40533;SDS011;26233;51.894;10.192;2022-10-17T06:00:57;1.98;;;1.88;;
40533;SDS011;26233;51.894;10.192;2022-10-17T06:03:24;2.00;;;1.80;;
40533;SDS011;26233;51.894;10.192;2022-10-17T06:05:52;2.22;;;2.03;;
40533;SDS011;26233;51.894;10.192;2022-10-17T06:08:19;2.35;;;2.03;;
40533;SDS011;26233;51.894;10.192;2022-10-17T06:10:47;2.28;;;2.10;;
40533;SDS011;26233;51.894;10.192;2022-10-17T06:13:16;2.10;;;1.90;;
40533;SDS011;26233;51.894;10.192;2022-10-17T06:15:43;2.90;;;2.30;;
40533;SDS011;26233;51.894;10.192;2022-10-17T06:18:11;2.00;;;1.90;;
40533;SDS011;26233;51.894;10.192;2022-10-17T06:20:38;2.10;;;1.90;;
40533;SDS011;26233;51.894;10.192;2022-10-17T06:23:05;4.03;;;2.00;;
40533;SDS011;26233;51.894;10.192;2022-10-17T06:25:32;2.08;;;1.98;;
40533;SDS011;26233;51.894;10.192;2022-10-17T06:27:59;1.95;;;1.85;;
40533;SDS011;26233;51.894;10.192;2022-10-17T06:30:28;2.85;;;2.13;;
40533;SDS011;26233;51.894;10.192;2022-10-17T06:32:55;2.08;;;1.95;;
40533;SDS011;26233;51.894;10.192;2022-10-17T06:35:22;2.58;;;1.92;;
40533;SDS011;26233;51.894;10.192;2022-10-17T06:37:49;2.13;;;2.03;;
40533;SDS011;26233;51.894;10.192;2022-10-17T06:40:16;4.18;;;1.80;;
40533;SDS011;26233;51.894;10.192;2022-10-17T06:42:43;3.38;;;1.90;;
40533;SDS011;26233;51.894;10.192;2022-10-17T06:45:10;2.13;;;1.92;;
40533;SDS011;26233;51.894;10.192;2022-10-17T06:47:39;1.80;;;1.70;;
40533;SDS011;26233;51.894;10.192;2022-10-17T06:50:06;2.38;;;1.90;;
40533;SDS011;26233;51.894;10.192;2022-10-17T06:52:34;2.15;;;1.95;;
40533;SDS011;26233;51.894;10.192;2022-10-17T06:55:01;2.28;;;2.05;;
40533;SDS011;26233;51.894;10.192;2022-10-17T06:57:28;2.45;;;2.25;;
40533;SDS011;26233;51.894;10.192;2022-10-17T06:59:55;2.30;;;2.00;;
40533;SDS011;26233;51.894;10.192;2022-10-17T07:02:22;2.83;;;2.03;;
40533;SDS011;26233;51.894;10.192;2022-10-17T07:04:51;2.05;;;1.88;;
40533;SDS011;26233;51.894;10.192;2022-10-17T07:07:18;2.10;;;1.95;;
40533;SDS011;26233;51.894;10.192;2022-10-17T07:09:45;2.40;;;2.20;;
40533;SDS011;26233;51.894;10.192;2022-10-17T07:12:12;3.42;;;2.00;;
40533;SDS011;26233;51.894;10.192;2022-10-17T07:14:39;1.90;;;1.80;;
40533;SDS011;26233;51.894;10.192;2022-10-17T07:17:06;2.00;;;1.90;;
40533;SDS011;26233;51.894;10.192;2022-10-17T07:19:34;2.05;;;1.90;;
40533;SDS011;26233;51.894;10.192;2022-10-17T07:22:02;2.40;;;1.90;;
40533;SDS011;26233;51.894;10.192;2022-10-17T07:24:30;3.22;;;1.90;;
40533;SDS011;26233;51.894;10.192;2022-10-17T07:26:57;2.47;;;2.28;;
40533;SDS011;26233;51.894;10.192;2022-10-17T07:29:24;2.20;;;2.10;;
40533;SDS011;26233;51.894;10.192;2022-10-17T07:31:51;2.30;;;2.10;;
40533;SDS011;26233;51.894;10.192;2022-10-17T07:34:18;2.42;;;1.65;;
40533;SDS011;26233;51.894;10.192;2022-10-17T07:36:45;1.85;;;1.75;;
40533;SDS011;26233;51.894;10.192;2022-10-17T07:39:13;1.90;;;1.80;;
40533;SDS011;26233;51.894;10.192;2022-10-17T07:41:40;2.08;;;1.90;;
40533;SDS011;26233;51.894;10.192;2022-10-17T07:44:07;2.08;;;1.88;;
40533;SDS011;26233;51.894;10.192;2022-10-17T07:46:35;2.60;;;1.77;;
40533;SDS011;26233;51.894;10.192;2022-10-17T07:49:02;3.78;;;1.98;;
40533;SDS011;26233;51.894;10.192;2022-10-17T07:51:29;2.45;;;2.10;;
40533;SDS011;26233;51.894;10.192;2022-10-17T07:53:56;2.08;;;1.95;;
40533;SDS011;26233;51.894;10.192;2022-10-17T07:56:25;2.10;;;1.90;;
40533;SDS011;26233;51.894;10.192;2022-10-17T07:58:54;2.75;;;1.70;;
40533;SDS011;26233;51.894;10.192;2022-10-17T08:01:22;2.22;;;1.92;;
40533;SDS011;26233;51.894;10.192;2022-10-17T08:03:49;2.42;;;2.00;;
40533;SDS011;26233;51.894;10.192;2022-10-17T08:06:17;2.05;;;1.85;;
40533;SDS011;26233;51.894;10.192;2022-10-17T08:08:44;2.10;;;1.85;;
40533;SDS011;26233;51.894;10.192;2022-10-17T08:11:12;2.15;;;1.95;;
40533;SDS011;26233;51.894;10.192;2022-10-17T08:13:41;2.13;;;2.00;;
40533;SDS011;26233;51.894;10.192;2022-10-17T08:16:09;2.03;;;1.88;;
40533;SDS011;26233;51.894;10.192;2022-10-17T08:18:38;1.73;;;1.63;;
40533;SDS011;26233;51.894;10.192;2022-10-17T08:21:07;1.92;;;1.70;;
40533;SDS011;26233;51.894;10.192;2022-10-17T08:23:35;1.85;;;1.75;;
40533;SDS011;26233;51.894;10.192;2022-10-17T08:26:03;1.90;;;1.80;;
40533;SDS011;26233;51.894;10.192;2022-10-17T08:28:34;1.80;;;1.50;;
40533;SDS011;26233;51.894;10.192;2022-10-17T08:31:04;1.80;;;1.70;;
40533;SDS011;26233;51.894;10.192;2022-10-17T08:33:34;3.00;;;1.92;;
40533;SDS011;26233;51.894;10.192;2022-10-17T08:36:02;2.20;;;2.00;;
40533;SDS011;26233;51.894;10.192;2022-10-17T08:38:31;2.20;;;1.75;;
40533;SDS011;26233;51.894;10.192;2022-10-17T08:41:02;2.15;;;1.95;;
40533;SDS011;26233;51.894;10.192;2022-10-17T08:43:41;4.78;;;1.67;;
40533;SDS011;26233;51.894;10.192;2022-10-17T08:46:21;1.80;;;1.70;;
40533;SDS011;26233;51.894;10.192;2022-10-17T08:48:54;2.70;;;1.88;;
40533;SDS011;26233;51.894;10.192;2022-10-17T08:51:26;2.38;;;1.92;;
40533;SDS011;26233;51.894;10.192;2022-10-17T08:54:00;1.77;;;1.65;;
40533;SDS011;26233;51.894;10.192;2022-10-17T08:56:37;1.80;;;1.70;;
40533;SDS011;26233;51.894;10.192;2022-10-17T08:59:09;2.45;;;1.67;;
40533;SDS011;26233;51.894;10.192;2022-10-17T09:01:40;1.95;;;1.75;;
40533;SDS011;26233;51.894;10.192;2022-10-17T09:04:19;1.83;;;1.73;;
40533;SDS011;26233;51.894;10.192;2022-10-17T09:07:10;2.00;;;1.75;;
40533;SDS011;26233;51.894;10.192;2022-10-17T09:09:47;2.42;;;1.95;;
40533;SDS011;26233;51.894;10.192;2022-10-17T09:12:26;1.83;;;1.73;;
40533;SDS011;26233;51.894;10.192;2022-10-17T09:18:08;1.85;;;1.60;;
40533;SDS011;26233;51.894;10.192;2022-10-17T09:20:39;2.10;;;1.90;;
40533;SDS011;26233;51.894;10.192;2022-10-17T09:23:11;3.45;;;1.95;;
40533;SDS011;26233;51.894;10.192;2022-10-17T09:25:44;3.67;;;1.83;;
40533;SDS011;26233;51.894;10.192;2022-10-17T09:28:16;2.47;;;1.98;;
40533;SDS011;26233;51.894;10.192;2022-10-17T09:30:47;3.10;;;1.90;;
40533;SDS011;26233;51.894;10.192;2022-10-17T09:33:24;1.80;;;1.70;;
40533;SDS011;26233;51.894;10.192;2022-10-17T09:35:54;1.95;;;1.75;;
40533;SDS011;26233;51.894;10.192;2022-10-17T09:38:23;2.45;;;1.77;;
40533;SDS011;26233;51.894;10.192;2022-10-17T09:41:03;1.90;;;1.67;;
40533;SDS011;26233;51.894;10.192;2022-10-17T09:43:39;2.65;;;1.80;;
40533;SDS011;26233;51.894;10.192;2022-10-17T09:46:07;2.00;;;1.77;;
40533;SDS011;26233;51.894;10.192;2022-10-17T09:48:43;2.00;;;1.90;;
40533;SDS011;26233;51.894;10.192;2022-10-17T09:51:14;1.95;;;1.80;;
40533;SDS011;26233;51.894;10.192;2022-10-17T09:53:42;2.25;;;2.05;;
40533;SDS011;26233;51.894;10.192;2022-10-17T09:56:15;2.00;;;1.90;;
40533;SDS011;26233;51.894;10.192;2022-10-17T09:58:45;2.33;;;1.90;;
40533;SDS011;26233;51.894;10.192;2022-10-17T10:01:15;2.40;;;1.95;;
40533;SDS011;26233;51.894;10.192;2022-10-17T10:03:47;1.80;;;1.70;;
40533;SDS011;26233;51.894;10.192;2022-10-17T10:06:16;2.28;;;2.00;;
40533;SDS011;26233;51.894;10.192;2022-10-17T10:08:48;1.80;;;1.70;;
40533;SDS011;26233;51.894;10.192;2022-10-17T10:11:18;3.25;;;1.77;;
40533;SDS011;26233;51.894;10.192;2022-10-17T10:13:51;2.20;;;2.00;;
40533;SDS011;26233;51.894;10.192;2022-10-17T10:16:20;3.50;;;2.15;;
40533;SDS011;26233;51.894;10.192;2022-10-17T10:18:51;1.63;;;1.52;;
40533;SDS011;26233;51.894;10.192;2022-10-17T10:21:19;2.17;;;2.00;;
40533;SDS011;26233;51.894;10.192;2022-10-17T10:24:04;2.10;;;1.90;;
40533;SDS011;26233;51.894;10.192;2022-10-17T10:26:38;2.67;;;2.17;;
40533;SDS011;26233;51.894;10.192;2022-10-17T10:29:18;3.03;;;2.40;;
40533;SDS011;26233;51.894;10.192;2022-10-17T10:31:49;3.15;;;1.88;;
40533;SDS011;26233;51.894;10.192;2022-10-17T10:34:20;2.58;;;2.00;;
40533;SDS011;26233;51.894;10.192;2022-10-17T10:36:51;1.70;;;1.60;;
40533;SDS011;26233;51.894;10.192;2022-10-17T10:39:25;1.92;;;1.73;;
40533;SDS011;26233;51.894;10.192;2022-10-17T10:42:05;2.55;;;2.10;;
40533;SDS011;26233;51.894;10.192;2022-10-17T10:44:44;2.15;;;1.90;;
40533;SDS011;26233;51.894;10.192;2022-10-17T10:47:16;2.25;;;1.90;;
40533;SDS011;26233;51.894;10.192;2022-10-17T10:49:50;2.38;;;1.88;;
40533;SDS011;26233;51.894;10.192;2022-10-17T10:52:32;3.28;;;2.30;;
40533;SDS011;26233;51.894;10.192;2022-10-17T10:55:13;1.90;;;1.70;;
40533;SDS011;26233;51.894;10.192;2022-10-17T10:57:48;3.17;;;1.80;;
40533;SDS011;26233;51.894;10.192;2022-10-17T11:00:20;2.17;;;1.90;;
40533;SDS011;26233;51.894;10.192;2022-10-17T11:02:53;1.85;;;1.75;;
40533;SDS011;26233;51.894;10.192;2022-10-17T11:05:36;1.95;;;1.80;;
40533;SDS011;26233;51.894;10.192;2022-10-17T11:08:11;1.83;;;1.73;;
40533;SDS011;26233;51.894;10.192;2022-10-17T11:10:50;2.25;;;1.90;;
40533;SDS011;26233;51.894;10.192;2022-10-17T11:13:29;2.03;;;1.83;;
40533;SDS011;26233;51.894;10.192;2022-10-17T11:16:07;2.45;;;1.88;;
40533;SDS011;26233;51.894;10.192;2022-10-17T11:18:47;1.73;;;1.58;;
40533;SDS011;26233;51.894;10.192;2022-10-17T11:21:25;1.85;;;1.67;;
40533;SDS011;26233;51.894;10.192;2022-10-17T11:24:04;2.10;;;1.90;;
40533;SDS011;26233;51.894;10.192;2022-10-17T11:26:40;4.68;;;1.63;;
40533;SDS011;26233;51.894;10.192;2022-10-17T11:29:11;2.63;;;1.70;;
40533;SDS011;26233;51.894;10.192;2022-10-17T11:31:39;2.08;;;1.88;;
40533;SDS011;26233;51.894;10.192;2022-10-17T11:34:18;2.88;;;1.73;;
40533;SDS011;26233;51.894;10.192;2022-10-17T11:36:51;1.70;;;1.60;;
40533;SDS011;26233;51.894;10.192;2022-10-17T11:39:26;2.28;;;1.95;;
40533;SDS011;26233;51.894;10.192;2022-10-17T11:42:01;1.83;;;1.60;;
40533;SDS011;26233;51.894;10.192;2022-10-17T11:44:33;2.47;;;1.90;;
40533;SDS011;26233;51.894;10.192;2022-10-17T11:47:03;1.85;;;1.75;;
40533;SDS011;26233;51.894;10.192;2022-10-17T11:49:39;2.05;;;1.85;;
40533;SDS011;26233;51.894;10.192;2022-10-17T11:52:17;2.03;;;1.88;;
40533;SDS011;26233;51.894;10.192;2022-10-17T11:54:57;2.72;;;1.77;;
40533;SDS011;26233;51.894;10.192;2022-10-17T11:57:35;3.10;;;1.88;;
40533;SDS011;26233;51.894;10.192;2022-10-17T12:00:18;2.10;;;1.90;;
40533;SDS011;26233;51.894;10.192;2022-10-17T12:02:56;1.95;;;1.70;;
40533;SDS011;26233;51.894;10.192;2022-10-17T12:05:38;1.85;;;1.70;;
40533;SDS011;26233;51.894;10.192;2022-10-17T12:08:17;2.60;;;1.80;;
40533;SDS011;26233;51.894;10.192;2022-10-17T12:10:51;2.13;;;1.63;;
40533;SDS011;26233;51.894;10.192;2022-10-17T12:22:02;2.03;;;1.60;;
40533;SDS011;26233;51.894;10.192;2022-10-17T12:24:57;2.20;;;1.67;;
40533;SDS011;26233;51.894;10.192;2022-10-17T12:27:39;2.50;;;1.98;;
40533;SDS011;26233;51.894;10.192;2022-10-17T12:30:20;6.70;;;2.00;;
40533;SDS011;26233;51.894;10.192;2022-10-17T12:32:53;1.92;;;1.65;;
40533;SDS011;26233;51.894;10.192;2022-10-17T12:35:30;2.83;;;1.45;;
40533;SDS011;26233;51.894;10.192;2022-10-17T12:40:51;1.70;;;1.50;;
40533;SDS011;26233;51.894;10.192;2022-10-17T12:43:33;1.83;;;1.50;;
40533;SDS011;26233;51.894;10.192;2022-10-17T12:46:13;2.72;;;1.60;;
40533;SDS011;26233;51.894;10.192;2022-10-17T12:52:18;1.73;;;1.60;;
40533;SDS011;26233;51.894;10.192;2022-10-17T12:54:57;1.80;;;1.70;;
40533;SDS011;26233;51.894;10.192;2022-10-17T13:00:28;1.70;;;1.55;;
40533;SDS011;26233;51.894;10.192;2022-10-17T13:03:02;1.92;;;1.70;;
40533;SDS011;26233;51.894;10.192;2022-10-17T13:05:36;2.65;;;1.75;;
40533;SDS011;26233;51.894;10.192;2022-10-17T13:08:12;1.50;;;1.40;;
40533;SDS011;26233;51.894;10.192;2022-10-17T13:10:44;2.63;;;1.70;;
40533;SDS011;26233;51.894;10.192;2022-10-17T13:13:16;1.52;;;1.42;;
40533;SDS011;26233;51.894;10.192;2022-10-17T13:15:47;2.83;;;1.60;;
40533;SDS011;26233;51.894;10.192;2022-10-17T13:18:17;1.85;;;1.65;;
40533;SDS011;26233;51.894;10.192;2022-10-17T13:20:53;1.60;;;1.50;;
40533;SDS011;26233;51.894;10.192;2022-10-17T13:23:28;2.65;;;1.75;;
40533;SDS011;26233;51.894;10.192;2022-10-17T13:26:01;2.13;;;1.75;;
40533;SDS011;26233;51.894;10.192;2022-10-17T13:28:40;1.60;;;1.50;;
40533;SDS011;26233;51.894;10.192;2022-10-17T13:31:19;1.98;;;1.80;;
40533;SDS011;26233;51.894;10.192;2022-10-17T13:33:55;1.95;;;1.75;;
40533;SDS011;26233;51.894;10.192;2022-10-17T13:36:24;2.63;;;1.70;;
40533;SDS011;26233;51.894;10.192;2022-10-17T13:38:52;2.60;;;1.88;;
40533;SDS011;26233;51.894;10.192;2022-10-17T13:41:23;1.83;;;1.60;;
40533;SDS011;26233;51.894;10.192;2022-10-17T13:43:55;2.28;;;1.75;;
40533;SDS011;26233;51.894;10.192;2022-10-17T13:46:24;1.90;;;1.80;;
40533;SDS011;26233;51.894;10.192;2022-10-17T13:48:54;1.92;;;1.60;;
40533;SDS011;26233;51.894;10.192;2022-10-17T13:51:22;2.13;;;1.60;;
40533;SDS011;26233;51.894;10.192;2022-10-17T13:53:50;3.45;;;2.00;;
40533;SDS011;26233;51.894;10.192;2022-10-17T13:56:19;2.30;;;1.83;;
40533;SDS011;26233;51.894;10.192;2022-10-17T13:58:50;4.78;;;1.73;;
40533;SDS011;26233;51.894;10.192;2022-10-17T14:01:23;3.10;;;1.90;;
40533;SDS011;26233;51.894;10.192;2022-10-17T14:03:52;2.22;;;1.77;;
40533;SDS011;26233;51.894;10.192;2022-10-17T14:06:20;1.67;;;1.58;;
40533;SDS011;26233;51.894;10.192;2022-10-17T14:08:51;1.83;;;1.70;;
40533;SDS011;26233;51.894;10.192;2022-10-17T14:11:24;1.60;;;1.50;;
40533;SDS011;26233;51.894;10.192;2022-10-17T14:13:58;1.77;;;1.67;;
40533;SDS011;26233;51.894;10.192;2022-10-17T14:16:34;4.40;;;1.80;;
40533;SDS011;26233;51.894;10.192;2022-10-17T14:19:04;2.38;;;2.00;;
40533;SDS011;26233;51.894;10.192;2022-10-17T14:21:38;2.25;;;1.70;;
40533;SDS011;26233;51.894;10.192;2022-10-17T14:24:12;1.60;;;1.50;;
40533;SDS011;26233;51.894;10.192;2022-10-17T14:26:52;1.88;;;1.77;;
40533;SDS011;26233;51.894;10.192;2022-10-17T14:29:23;1.73;;;1.60;;
40533;SDS011;26233;51.894;10.192;2022-10-17T14:32:00;2.45;;;1.63;;
40533;SDS011;26233;51.894;10.192;2022-10-17T14:34:32;2.40;;;1.60;;
40533;SDS011;26233;51.894;10.192;2022-10-17T14:37:07;1.60;;;1.30;;
40533;SDS011;26233;51.894;10.192;2022-10-17T14:39:35;1.98;;;1.80;;
40533;SDS011;26233;51.894;10.192;2022-10-17T14:42:03;2.17;;;1.70;;
40533;SDS011;26233;51.894;10.192;2022-10-17T14:44:31;2.47;;;1.77;;
40533;SDS011;26233;51.894;10.192;2022-10-17T14:47:02;3.03;;;1.70;;
40533;SDS011;26233;51.894;10.192;2022-10-17T14:49:33;1.70;;;1.60;;
40533;SDS011;26233;51.894;10.192;2022-10-17T14:52:19;2.00;;;1.70;;
40533;SDS011;26233;51.894;10.192;2022-10-17T14:54:55;3.92;;;1.88;;
40533;SDS011;26233;51.894;10.192;2022-10-17T14:57:27;2.08;;;1.52;;
40533;SDS011;26233;51.894;10.192;2022-10-17T15:00:08;1.70;;;1.60;;
40533;SDS011;26233;51.894;10.192;2022-10-17T15:02:41;1.88;;;1.77;;
40533;SDS011;26233;51.894;10.192;2022-10-17T15:05:09;2.28;;;1.90;;
40533;SDS011;26233;51.894;10.192;2022-10-17T15:07:36;1.90;;;1.60;;
40533;SDS011;26233;51.894;10.192;2022-10-17T15:10:04;1.92;;;1.70;;
40533;SDS011;26233;51.894;10.192;2022-10-17T15:12:46;1.73;;;1.60;;
40533;SDS011;26233;51.894;10.192;2022-10-17T15:15:14;2.72;;;1.65;;
40533;SDS011;26233;51.894;10.192;2022-10-17T15:17:42;2.05;;;1.70;;
40533;SDS011;26233;51.894;10.192;2022-10-17T15:20:10;3.55;;;1.70;;
40533;SDS011;26233;51.894;10.192;2022-10-17T15:22:40;2.28;;;1.60;;